Time;durP1;ratioP1;P1;durP2;ratioP2;P2;SDS_P1;SDS_P2;PMS_P1;PMS_P2;Temp;Humidity;BMP_temperature;BMP_pressure;BME280_temperature;BME280_humidity;BME280_pressure;Samples;Min_cycle;Max_cycle;Signal;HPM_P1;HPM_P2
2023/05/01 00:02:22;;;;;;;26.13;23.63;;;5.50;99.90;;;;;;4941280;28;20040;-78
2023/05/01 00:04:49;;;;;;;26.10;23.60;;;5.50;99.90;;;;;;4942364;29;20138;-77
2023/05/01 00:07:16;;;;;;;25.40;23.20;;;5.50;99.90;;;;;;4940126;28;20531;-77
2023/05/01 00:09:43;;;;;;;26.48;23.67;;;5.40;99.90;;;;;;4941977;29;20047;-76
2023/05/01 00:12:10;;;;;;;26.08;23.48;;;5.40;99.90;;;;;;4956301;28;20047;-78
2023/05/01 00:14:37;;;;;;;25.13;22.95;;;5.50;99.90;;;;;;4941710;28;20039;-76
2023/05/01 00:17:03;;;;;;;24.30;22.40;;;5.50;99.90;;;;;;4958223;28;20047;-76
2023/05/01 00:19:30;;;;;;;25.30;23.15;;;5.80;99.90;;;;;;4955427;28;20054;-76
2023/05/01 00:21:57;;;;;;;25.00;23.17;;;5.70;99.90;;;;;;4959467;28;20070;-76
2023/05/01 00:24:24;;;;;;;24.00;22.10;;;5.70;99.90;;;;;;4940807;29;20055;-77
2023/05/01 00:26:50;;;;;;;24.13;22.17;;;5.80;99.90;;;;;;4954792;28;20413;-77
2023/05/01 00:29:17;;;;;;;23.70;21.80;;;5.80;99.90;;;;;;4953185;28;20065;-76
2023/05/01 00:31:44;;;;;;;25.33;23.25;;;5.60;99.90;;;;;;4943374;28;20043;-76
2023/05/01 00:34:11;;;;;;;25.98;24.02;;;5.60;99.90;;;;;;4956497;28;20089;-76
2023/05/01 00:36:38;;;;;;;28.13;25.77;;;5.60;99.90;;;;;;4939494;28;20044;-77
2023/05/01 00:39:07;;;;;;;28.48;26.00;;;5.40;99.90;;;;;;4957976;28;20081;-77
2023/05/01 00:41:35;;;;;;;27.00;24.35;;;5.30;99.90;;;;;;4952467;28;20051;-76
2023/05/01 00:44:02;;;;;;;26.23;23.65;;;5.30;99.90;;;;;;4942336;29;20543;-77
2023/05/01 00:46:30;;;;;;;26.02;23.40;;;5.30;99.90;;;;;;4954370;28;20110;-77
2023/05/01 00:48:58;;;;;;;25.50;23.15;;;5.30;99.90;;;;;;4951070;28;20487;-75
2023/05/01 00:51:27;;;;;;;25.33;23.20;;;5.30;99.90;;;;;;4922667;29;20047;-78
2023/05/01 00:53:55;;;;;;;25.45;23.15;;;5.40;99.90;;;;;;4925476;29;20046;-76
2023/05/01 00:56:22;;;;;;;24.77;22.77;;;5.40;99.90;;;;;;4923685;29;20059;-76
2023/05/01 00:58:52;;;;;;;24.38;22.20;;;5.40;99.90;;;;;;4956962;28;20070;-75
2023/05/01 01:01:20;;;;;;;24.88;22.55;;;5.50;99.90;;;;;;4939793;28;20047;-77
2023/05/01 01:03:47;;;;;;;24.90;22.60;;;5.50;99.90;;;;;;4941340;28;20039;-76
2023/05/01 01:06:32;;;;;;;24.38;22.48;;;5.60;99.90;;;;;;4940656;28;20040;-77
2023/05/01 01:09:17;;;;;;;23.63;21.50;;;5.60;99.90;;;;;;4938052;28;20047;-77
2023/05/01 01:11:55;;;;;;;25.13;23.02;;;5.60;99.90;;;;;;4948831;28;20039;-77
2023/05/01 01:14:39;;;;;;;23.52;21.65;;;5.70;99.90;;;;;;4955742;28;20070;-75
2023/05/01 01:17:15;;;;;;;24.67;22.30;;;5.80;99.90;;;;;;4943954;28;20051;-76
2023/05/01 01:20:07;;;;;;;24.92;22.75;;;5.70;99.90;;;;;;4936874;28;20071;-77
2023/05/01 01:22:36;;;;;;;25.42;23.48;;;5.60;99.90;;;;;;4958563;28;20043;-76
2023/05/01 01:25:28;;;;;;;26.20;23.60;;;5.50;99.90;;;;;;4936694;29;20047;-77
2023/05/01 01:28:33;;;;;;;25.90;23.63;;;5.30;99.90;;;;;;4931330;29;20104;-77
2023/05/01 01:31:12;;;;;;;26.55;24.30;;;5.30;99.90;;;;;;4940249;28;20043;-76
2023/05/01 01:33:54;;;;;;;25.05;22.92;;;5.20;99.90;;;;;;4937988;28;20047;-76
2023/05/01 01:36:39;;;;;;;26.23;23.90;;;5.10;99.90;;;;;;4952367;28;20047;-77
2023/05/01 01:39:36;;;;;;;27.70;25.02;;;5.10;99.90;;;;;;4941519;28;20137;-76
2023/05/01 01:42:08;;;;;;;25.25;22.90;;;5.30;99.90;;;;;;4937711;28;20134;-76
2023/05/01 01:44:44;;;;;;;26.35;24.17;;;5.20;99.90;;;;;;4937813;28;20508;-76
2023/05/01 01:47:12;;;;;;;24.23;22.30;;;5.30;99.90;;;;;;4942866;28;20061;-77
2023/05/01 01:49:44;;;;;;;26.33;23.65;;;5.40;99.90;;;;;;4921820;29;20054;-76
2023/05/01 01:52:14;;;;;;;24.98;22.50;;;5.60;99.90;;;;;;4940049;28;20035;-76
2023/05/01 01:54:53;;;;;;;25.23;23.05;;;5.60;99.90;;;;;;4939140;29;20228;-76
2023/05/01 01:57:22;;;;;;;24.70;22.60;;;5.70;99.90;;;;;;4958153;28;20865;-76
2023/05/01 01:59:50;;;;;;;25.13;22.63;;;5.90;99.90;;;;;;4923053;29;20103;-77
2023/05/01 02:02:19;;;;;;;25.50;23.10;;;6.00;99.90;;;;;;4937515;28;20147;-76
2023/05/01 02:04:48;;;;;;;25.48;23.02;;;6.30;99.90;;;;;;4937249;29;20042;-78
2023/05/01 02:07:16;;;;;;;24.33;22.20;;;6.50;99.90;;;;;;4941400;28;20053;-78
2023/05/01 02:09:45;;;;;;;24.83;22.92;;;6.60;99.90;;;;;;4953058;28;20577;-76
2023/05/01 02:12:15;;;;;;;25.30;23.17;;;6.70;99.90;;;;;;4939159;28;20039;-76
2023/05/01 02:14:43;;;;;;;25.98;23.67;;;6.80;99.90;;;;;;4939676;28;20047;-76
2023/05/01 02:17:12;;;;;;;26.85;24.48;;;6.70;99.90;;;;;;4919249;28;1032090;-75
2023/05/01 02:19:39;;;;;;;26.35;23.85;;;6.50;99.90;;;;;;4937592;28;20150;-76
2023/05/01 02:22:07;;;;;;;25.27;23.33;;;6.40;99.90;;;;;;4955451;28;20043;-76
2023/05/01 02:24:37;;;;;;;26.52;24.17;;;6.20;99.90;;;;;;4952229;28;20134;-76
2023/05/01 02:27:13;;;;;;;26.90;24.65;;;6.10;99.90;;;;;;4955032;28;20043;-76
2023/05/01 02:29:39;;;;;;;24.52;22.70;;;6.00;99.90;;;;;;4951604;28;20044;-76
2023/05/01 02:32:06;;;;;;;25.45;23.15;;;6.10;99.90;;;;;;4941160;28;20042;-75
2023/05/01 02:34:34;;;;;;;24.70;22.67;;;6.30;99.90;;;;;;4937363;29;20055;-76
2023/05/01 02:37:04;;;;;;;27.35;24.85;;;6.40;99.90;;;;;;4937841;28;20075;-75
2023/05/01 02:39:31;;;;;;;25.80;23.50;;;6.30;99.90;;;;;;4934754;29;20073;-76
2023/05/01 02:42:02;;;;;;;26.10;23.67;;;6.30;99.90;;;;;;4940025;28;20664;-75
2023/05/01 02:44:37;;;;;;;25.73;23.60;;;6.20;99.90;;;;;;4958581;28;20670;-76
2023/05/01 02:47:06;;;;;;;25.83;23.58;;;6.30;99.90;;;;;;4953963;28;20102;-76
2023/05/01 02:49:35;;;;;;;25.83;23.60;;;6.40;99.90;;;;;;4937018;29;20072;-75
2023/05/01 02:52:03;;;;;;;25.35;22.83;;;6.40;99.90;;;;;;4940823;28;20039;-76
2023/05/01 02:54:30;;;;;;;25.65;23.73;;;6.40;99.90;;;;;;4948666;28;20685;-75
2023/05/01 02:56:58;;;;;;;26.63;24.10;;;6.40;99.90;;;;;;4951785;28;20043;-75
2023/05/01 02:59:25;;;;;;;25.90;23.58;;;6.30;99.90;;;;;;4936307;28;20118;-76
2023/05/01 03:01:51;;;;;;;25.67;23.02;;;6.20;99.90;;;;;;4937075;28;20058;-76
2023/05/01 03:04:19;;;;;;;25.48;23.38;;;6.20;99.90;;;;;;4953115;28;20622;-76
2023/05/01 03:06:46;;;;;;;25.85;23.63;;;6.20;99.90;;;;;;4937309;28;20036;-76
2023/05/01 03:09:13;;;;;;;26.80;24.10;;;6.10;99.90;;;;;;4938714;28;20125;-76
2023/05/01 03:11:39;;;;;;;26.20;24.00;;;5.90;99.90;;;;;;4937908;28;20040;-76
2023/05/01 03:14:07;;;;;;;26.00;23.88;;;5.80;99.90;;;;;;4953215;28;20537;-76
2023/05/01 03:16:34;;;;;;;26.20;23.70;;;5.80;99.90;;;;;;4936299;28;20035;-76
2023/05/01 03:19:00;;;;;;;25.70;23.55;;;5.70;99.90;;;;;;4951274;28;20051;-75
2023/05/01 03:21:27;;;;;;;26.17;23.60;;;5.80;99.90;;;;;;4951733;28;20051;-76
2023/05/01 03:23:54;;;;;;;24.58;22.48;;;5.60;99.90;;;;;;4954119;28;20138;-75
2023/05/01 03:26:20;;;;;;;25.65;23.52;;;5.60;99.90;;;;;;4937996;28;20447;-75
2023/05/01 03:28:48;;;;;;;27.50;24.80;;;5.60;99.90;;;;;;4953957;28;20130;-76
2023/05/01 03:31:15;;;;;;;25.15;23.10;;;5.60;99.90;;;;;;4939202;28;20074;-76
2023/05/01 03:33:43;;;;;;;26.73;24.17;;;5.60;99.90;;;;;;4955224;28;20055;-76
2023/05/01 03:36:12;;;;;;;26.13;23.58;;;5.60;99.90;;;;;;4925310;29;20038;-75
2023/05/01 03:38:39;;;;;;;25.85;23.75;;;5.60;99.90;;;;;;4923317;29;21801;-75
2023/05/01 03:41:09;;;;;;;26.63;24.33;;;5.70;99.90;;;;;;4940993;28;20057;-76
2023/05/01 03:44:14;;;;;;;26.23;23.88;;;5.60;99.90;;;;;;4917140;29;20044;-76
2023/05/01 03:46:43;;;;;;;25.17;23.35;;;5.40;99.90;;;;;;4890842;29;20113;-75
2023/05/01 03:49:16;;;;;;;28.40;23.98;;;5.40;99.90;;;;;;4923035;29;20043;-75
2023/05/01 03:51:46;;;;;;;26.40;24.02;;;5.50;99.90;;;;;;4955302;28;20152;-76
2023/05/01 03:54:13;;;;;;;26.05;23.80;;;5.50;99.90;;;;;;4942929;29;20682;-76
2023/05/01 03:57:06;;;;;;;28.95;26.30;;;5.50;99.90;;;;;;4945077;28;20039;-76
2023/05/01 03:59:34;;;;;;;25.52;23.23;;;5.50;99.90;;;;;;4943216;28;20043;-75
2023/05/01 04:02:02;;;;;;;26.27;24.25;;;5.40;99.90;;;;;;4957535;28;20133;-76
2023/05/01 04:04:32;;;;;;;26.23;23.83;;;5.40;99.90;;;;;;4940406;28;20051;-76
2023/05/01 04:06:59;;;;;;;25.40;23.38;;;5.40;99.90;;;;;;4957268;28;20114;-77
2023/05/01 04:09:28;;;;;;;26.60;23.90;;;5.40;99.90;;;;;;4940812;28;20070;-77
2023/05/01 04:11:56;;;;;;;27.25;24.65;;;5.40;99.90;;;;;;4956757;28;20041;-76
2023/05/01 04:14:22;;;;;;;25.83;23.45;;;5.30;99.90;;;;;;4939878;29;20666;-75
2023/05/01 04:16:50;;;;;;;25.67;23.58;;;5.30;99.90;;;;;;4941311;28;20050;-75
2023/05/01 04:19:17;;;;;;;31.73;29.15;;;5.40;99.90;;;;;;4941693;28;20599;-75
2023/05/01 04:21:46;;;;;;;30.98;28.42;;;5.40;99.90;;;;;;4955879;28;20047;-76
2023/05/01 04:24:13;;;;;;;30.65;28.23;;;5.40;99.90;;;;;;4950336;28;20054;-76
2023/05/01 04:26:41;;;;;;;31.55;28.83;;;5.40;99.90;;;;;;4935964;28;20058;-76
2023/05/01 04:29:08;;;;;;;30.98;28.17;;;5.40;99.90;;;;;;4942188;28;20071;-75
2023/05/01 04:31:35;;;;;;;30.92;28.45;;;5.40;99.90;;;;;;4950431;28;20039;-75
2023/05/01 04:34:02;;;;;;;30.17;27.50;;;5.50;99.90;;;;;;4956644;28;20130;-76
2023/05/01 04:36:31;;;;;;;29.85;27.45;;;5.50;99.90;;;;;;4936251;28;20055;-76
2023/05/01 04:38:58;;;;;;;28.95;26.73;;;5.60;99.90;;;;;;4940971;28;20047;-76
2023/05/01 04:41:25;;;;;;;30.38;27.77;;;5.60;99.90;;;;;;4953614;28;20043;-76
2023/05/01 04:43:52;;;;;;;28.70;26.50;;;5.70;99.90;;;;;;4956424;28;20039;-76
2023/05/01 04:46:19;;;;;;;29.77;27.42;;;5.80;99.90;;;;;;4955696;28;20493;-75
2023/05/01 04:48:46;;;;;;;30.60;27.88;;;5.90;99.90;;;;;;4953844;28;20043;-75
2023/05/01 04:51:12;;;;;;;30.58;28.15;;;6.00;99.90;;;;;;4939598;28;20039;-76
2023/05/01 04:53:39;;;;;;;30.48;28.08;;;6.10;99.90;;;;;;4930880;28;20053;-76
2023/05/01 04:56:15;;;;;;;30.38;28.17;;;6.20;99.90;;;;;;4942717;28;20039;-77
2023/05/01 04:58:43;;;;;;;30.50;28.10;;;6.20;99.90;;;;;;4944219;28;20086;-76
2023/05/01 05:01:14;;;;;;;30.88;28.40;;;6.30;99.90;;;;;;4955254;28;20047;-75
2023/05/01 05:03:41;;;;;;;31.73;29.23;;;6.30;99.90;;;;;;4952584;28;20117;-75
2023/05/01 05:06:10;;;;;;;30.58;28.25;;;6.20;99.90;;;;;;4955848;28;20093;-76
2023/05/01 05:08:37;;;;;;;31.80;29.00;;;6.40;99.90;;;;;;4950263;28;20044;-75
2023/05/01 05:11:08;;;;;;;32.30;29.55;;;6.40;99.90;;;;;;4935818;28;20035;-76
2023/05/01 05:13:41;;;;;;;31.48;28.90;;;6.50;99.90;;;;;;4937439;28;20043;-76
2023/05/01 05:16:11;;;;;;;33.20;30.45;;;6.50;99.90;;;;;;4938854;28;20454;-75
2023/05/01 05:18:37;;;;;;;32.55;29.77;;;6.60;99.90;;;;;;4934512;29;20058;-76
2023/05/01 05:21:05;;;;;;;30.67;28.58;;;6.70;99.90;;;;;;4938950;28;20142;-75
2023/05/01 05:23:32;;;;;;;33.75;30.92;;;6.90;99.90;;;;;;4935504;29;20053;-76
2023/05/01 05:26:00;;;;;;;31.67;29.48;;;6.90;99.90;;;;;;4940231;28;20069;-76
2023/05/01 05:28:27;;;;;;;31.15;28.77;;;6.90;99.90;;;;;;4952642;28;20049;-75
2023/05/01 05:30:55;;;;;;;31.38;28.98;;;7.20;99.90;;;;;;4937006;28;20043;-76
2023/05/01 05:33:23;;;;;;;32.60;30.13;;;7.10;99.90;;;;;;4938519;28;20126;-75
2023/05/01 05:35:51;;;;;;;31.95;29.33;;;7.30;99.90;;;;;;4935596;28;20039;-77
2023/05/01 05:38:21;;;;;;;31.65;29.13;;;7.50;99.90;;;;;;4943741;28;20051;-76
2023/05/01 05:40:53;;;;;;;31.40;28.67;;;7.70;99.90;;;;;;4936152;28;20473;-75
2023/05/01 05:43:20;;;;;;;31.38;28.98;;;7.80;99.90;;;;;;4952927;28;20051;-76
2023/05/01 05:45:46;;;;;;;31.25;28.50;;;7.80;99.90;;;;;;4935649;28;20146;-76
2023/05/01 05:48:13;;;;;;;30.20;27.75;;;8.00;99.90;;;;;;4924123;29;20107;-76
2023/05/01 05:50:40;;;;;;;31.65;28.60;;;8.00;99.90;;;;;;4933508;28;20039;-77
2023/05/01 05:53:08;;;;;;;30.38;27.90;;;8.20;99.90;;;;;;4954966;28;20114;-76
2023/05/01 05:55:36;;;;;;;30.63;28.25;;;8.40;99.90;;;;;;4939312;28;20043;-76
2023/05/01 05:58:05;;;;;;;29.70;27.63;;;8.40;99.90;;;;;;4937530;28;20067;-76
2023/05/01 06:00:32;;;;;;;28.80;26.50;;;8.60;99.90;;;;;;4934988;28;20086;-76
2023/05/01 06:03:03;;;;;;;28.13;25.92;;;8.80;99.90;;;;;;4924701;29;20592;-76
2023/05/01 06:05:31;;;;;;;28.52;26.42;;;8.90;99.90;;;;;;4942960;28;20152;-76
2023/05/01 06:07:57;;;;;;;29.60;27.30;;;9.00;99.90;;;;;;4937366;28;20683;-75
2023/05/01 06:10:24;;;;;;;29.38;27.15;;;9.10;99.90;;;;;;4939339;28;20047;-76
2023/05/01 06:12:51;;;;;;;28.92;26.70;;;9.20;99.90;;;;;;4936188;28;20043;-77
2023/05/01 06:15:38;;;;;;;30.10;28.13;;;9.30;99.90;;;;;;4950359;28;20094;-76
2023/05/01 06:18:05;;;;;;;28.08;25.98;;;9.40;99.90;;;;;;4937301;28;20035;-76
2023/05/01 06:20:32;;;;;;;27.42;25.48;;;9.40;99.90;;;;;;4935743;28;20074;-75
2023/05/01 06:22:59;;;;;;;28.65;26.45;;;9.50;99.90;;;;;;4953806;28;20053;-76
2023/05/01 06:25:39;;;;;;;28.10;25.90;;;9.70;99.90;;;;;;4952155;28;20509;-76
2023/05/01 06:28:06;;;;;;;28.52;26.42;;;9.80;99.90;;;;;;4933332;28;20035;-76
2023/05/01 06:30:33;;;;;;;28.52;26.42;;;10.00;99.90;;;;;;4931188;28;20130;-76
2023/05/01 06:33:01;;;;;;;28.83;26.73;;;10.20;99.90;;;;;;4954220;28;20500;-76
2023/05/01 06:35:28;;;;;;;28.10;26.17;;;10.30;99.90;;;;;;4921296;28;20043;-76
2023/05/01 06:37:54;;;;;;;29.30;26.88;;;10.40;99.90;;;;;;4936664;28;20034;-76
2023/05/01 06:40:21;;;;;;;29.08;27.17;;;10.30;99.90;;;;;;4954312;28;20055;-75
2023/05/01 06:42:48;;;;;;;28.50;26.20;;;10.40;99.90;;;;;;4950890;28;20512;-75
2023/05/01 06:45:15;;;;;;;27.92;26.08;;;10.50;99.90;;;;;;4953128;28;20130;-75
2023/05/01 06:47:42;;;;;;;28.75;26.70;;;10.60;99.90;;;;;;4936886;29;20074;-75
2023/05/01 06:50:09;;;;;;;30.38;28.08;;;10.80;99.90;;;;;;4954653;28;20070;-76
2023/05/01 06:52:36;;;;;;;30.40;27.98;;;10.90;99.90;;;;;;4937839;28;20520;-75
2023/05/01 06:55:04;;;;;;;27.92;26.02;;;10.90;99.90;;;;;;4937675;28;20535;-75
2023/05/01 06:57:31;;;;;;;29.25;27.20;;;10.90;99.90;;;;;;4936845;28;20146;-76
2023/05/01 06:59:58;;;;;;;31.48;29.13;;;11.00;99.90;;;;;;4936011;29;20138;-76
2023/05/01 07:02:25;;;;;;;28.38;26.48;;;11.10;99.90;;;;;;4939046;28;20138;-75
2023/05/01 07:04:52;;;;;;;30.10;27.55;;;11.20;99.90;;;;;;4951772;28;20891;-76
2023/05/01 07:07:19;;;;;;;29.92;27.83;;;11.50;99.90;;;;;;4952293;28;20700;-75
2023/05/01 07:09:45;;;;;;;31.80;29.60;;;11.80;99.90;;;;;;4940128;29;20043;-76
2023/05/01 07:12:12;;;;;;;31.33;29.13;;;11.90;99.90;;;;;;4942929;28;20045;-76
2023/05/01 07:14:40;;;;;;;33.72;31.58;;;12.00;99.90;;;;;;4940001;29;20035;-75
2023/05/01 07:17:08;;;;;;;33.97;31.98;;;12.00;99.90;;;;;;4941623;28;20046;-76
2023/05/01 07:19:34;;;;;;;36.67;34.22;;;12.00;99.90;;;;;;4940685;29;20043;-76
2023/05/01 07:22:02;;;;;;;37.08;34.88;;;12.10;99.90;;;;;;4939639;28;20059;-76
2023/05/01 07:24:28;;;;;;;33.60;31.35;;;12.00;99.90;;;;;;4958048;28;20039;-77
2023/05/01 07:26:55;;;;;;;34.53;32.15;;;12.20;99.90;;;;;;4945418;28;20032;-75
2023/05/01 07:29:22;;;;;;;32.38;30.02;;;12.20;99.90;;;;;;4942159;28;20044;-75
2023/05/01 07:31:48;;;;;;;33.25;30.95;;;12.20;99.90;;;;;;4940742;28;20039;-77
2023/05/01 07:34:17;;;;;;;32.88;30.67;;;12.30;99.90;;;;;;4940831;29;20059;-76
2023/05/01 07:36:43;;;;;;;34.45;32.42;;;12.50;99.90;;;;;;4954492;28;20035;-75
2023/05/01 07:39:10;;;;;;;35.72;33.20;;;12.80;99.90;;;;;;4939081;28;20139;-76
2023/05/01 07:41:37;;;;;;;35.03;32.83;;;12.90;99.90;;;;;;4939427;28;20043;-77
2023/05/01 07:44:03;;;;;;;35.33;33.03;;;12.80;99.90;;;;;;4941958;29;20050;-75
2023/05/01 07:46:30;;;;;;;34.97;32.63;;;12.90;99.90;;;;;;4940028;28;20051;-76
2023/05/01 07:48:57;;;;;;;35.45;32.95;;;13.10;99.90;;;;;;4938601;29;20046;-76
2023/05/01 07:51:24;;;;;;;35.95;33.65;;;13.40;99.90;;;;;;4941383;28;20047;-76
2023/05/01 07:53:51;;;;;;;35.05;32.85;;;13.40;99.90;;;;;;4940194;29;20562;-76
2023/05/01 07:56:17;;;;;;;36.20;33.75;;;13.60;99.90;;;;;;4940308;28;20048;-75
2023/05/01 07:58:44;;;;;;;36.13;33.85;;;13.60;99.90;;;;;;4938169;29;20120;-76
2023/05/01 08:01:11;;;;;;;36.80;34.33;;;13.70;99.90;;;;;;4955922;28;20054;-75
2023/05/01 08:03:38;;;;;;;36.92;34.63;;;13.60;99.90;;;;;;4938204;29;20515;-75
2023/05/01 08:06:05;;;;;;;36.30;33.80;;;13.70;99.90;;;;;;4940575;29;20125;-76
2023/05/01 08:08:32;;;;;;;37.28;34.50;;;13.80;99.90;;;;;;4939741;28;20049;-75
2023/05/01 08:10:59;;;;;;;38.20;35.33;;;13.90;99.90;;;;;;4939193;28;20505;-75
2023/05/01 08:13:25;;;;;;;36.78;34.15;;;14.00;99.90;;;;;;4940456;28;20129;-75
2023/05/01 08:15:52;;;;;;;36.42;34.03;;;13.90;99.90;;;;;;4939766;28;20058;-78
2023/05/01 08:18:19;;;;;;;37.15;34.00;;;14.00;99.90;;;;;;4941235;28;20051;-77
2023/05/01 08:20:47;;;;;;;35.45;32.78;;;14.00;99.90;;;;;;4936104;28;20134;-79
2023/05/01 08:23:15;;;;;;;34.83;32.25;;;13.90;99.90;;;;;;4954042;28;20134;-78
2023/05/01 08:25:45;;;;;;;34.30;32.00;;;13.80;99.90;;;;;;4943540;28;20620;-76
2023/05/01 08:28:13;;;;;;;34.60;32.03;;;13.90;99.90;;;;;;4941757;28;20043;-75
2023/05/01 08:30:40;;;;;;;37.58;34.72;;;13.90;99.90;;;;;;4935653;28;20090;-76
2023/05/01 08:33:07;;;;;;;41.13;38.58;;;14.20;99.90;;;;;;4941151;28;20054;-75
2023/05/01 08:35:34;;;;;;;35.85;33.53;;;14.40;99.90;;;;;;4943430;28;20054;-74
2023/05/01 08:38:01;;;;;;;39.13;36.50;;;14.90;99.90;;;;;;4938599;28;20070;-78
2023/05/01 08:40:32;;;;;;;36.75;34.28;;;15.00;99.90;;;;;;4939005;28;20055;-75
2023/05/01 08:43:00;;;;;;;38.28;35.97;;;15.20;99.90;;;;;;4938234;28;20062;-79
2023/05/01 08:45:29;;;;;;;37.47;34.88;;;15.30;99.90;;;;;;4939688;28;20665;-78
2023/05/01 08:48:00;;;;;;;38.35;35.88;;;15.80;99.90;;;;;;4938460;29;20066;-74
2023/05/01 08:50:27;;;;;;;35.33;32.78;;;16.00;99.90;;;;;;4939439;28;20113;-78
2023/05/01 08:52:57;;;;;;;34.30;32.25;;;16.10;99.90;;;;;;4939720;28;20448;-75
2023/05/01 08:55:26;;;;;;;38.63;36.15;;;15.90;99.90;;;;;;4941191;28;20576;-76
2023/05/01 08:57:54;;;;;;;38.47;36.10;;;15.80;99.90;;;;;;4937334;29;20054;-78
2023/05/01 09:00:21;;;;;;;39.53;37.08;;;15.70;99.90;;;;;;4941032;28;20043;-78
2023/05/01 09:02:49;;;;;;;38.08;35.53;;;15.70;99.90;;;;;;4922982;29;20606;-78
2023/05/01 09:05:18;;;;;;;38.20;35.70;;;15.90;99.90;;;;;;4959145;28;20589;-75
2023/05/01 09:07:46;;;;;;;37.20;34.90;;;15.90;99.90;;;;;;4939179;28;20106;-74
2023/05/01 09:10:15;;;;;;;35.85;33.30;;;15.70;99.90;;;;;;4940513;28;20035;-75
2023/05/01 09:12:47;;;;;;;35.60;33.08;;;15.70;99.90;;;;;;4939516;28;20106;-76
2023/05/01 09:15:14;;;;;;;37.53;35.10;;;15.70;99.90;;;;;;4951641;28;20070;-75
2023/05/01 09:17:43;;;;;;;36.50;34.13;;;15.80;99.90;;;;;;4939183;29;20043;-76
2023/05/01 09:20:10;;;;;;;38.08;35.55;;;16.20;99.90;;;;;;4947826;28;20725;-75
2023/05/01 09:22:37;;;;;;;38.35;35.65;;;16.10;99.90;;;;;;4939657;28;20229;-78
2023/05/01 09:25:05;;;;;;;38.00;35.78;;;16.00;99.90;;;;;;4938335;29;20701;-75
2023/05/01 09:27:36;;;;;;;37.88;35.47;;;15.90;99.90;;;;;;4936917;29;20055;-77
2023/05/01 09:30:05;;;;;;;38.25;35.90;;;15.90;99.90;;;;;;4934727;29;20059;-76
2023/05/01 09:32:32;;;;;;;37.15;34.75;;;16.10;99.90;;;;;;4943160;28;20072;-78
2023/05/01 09:35:13;;;;;;;35.95;33.55;;;16.60;99.90;;;;;;4938399;28;20570;-77
2023/05/01 09:37:40;;;;;;;38.70;36.20;;;16.70;99.90;;;;;;4936462;28;20051;-79
2023/05/01 09:40:10;;;;;;;37.58;35.28;;;16.90;99.90;;;;;;4953026;28;20071;-76
2023/05/01 09:42:51;;;;;;;41.15;38.35;;;17.20;99.90;;;;;;4935969;28;20052;-75
2023/05/01 09:45:18;;;;;;;39.70;37.17;;;17.20;99.90;;;;;;4935574;28;20047;-76
2023/05/01 09:47:46;;;;;;;36.80;34.47;;;17.10;99.90;;;;;;4938549;29;20074;-76
2023/05/01 09:50:29;;;;;;;37.72;35.10;;;17.40;99.90;;;;;;4937406;28;20042;-74
2023/05/01 09:52:56;;;;;;;37.67;35.58;;;17.70;99.90;;;;;;4938007;28;20043;-78
2023/05/01 09:55:23;;;;;;;39.63;37.25;;;17.70;99.90;;;;;;4938567;28;20044;-76
2023/05/01 09:57:51;;;;;;;37.38;35.08;;;18.00;99.90;;;;;;4933133;28;20074;-78
2023/05/01 10:00:20;;;;;;;34.72;32.72;;;18.20;99.90;;;;;;4939206;28;20485;-78
2023/05/01 10:02:48;;;;;;;37.67;35.50;;;18.30;99.90;;;;;;4939101;28;20039;-75
2023/05/01 10:05:16;;;;;;;35.38;33.17;;;18.40;99.90;;;;;;4937286;28;20409;-79
2023/05/01 10:08:01;;;;;;;37.88;35.38;;;18.30;99.90;;;;;;4937845;28;20035;-76
2023/05/01 10:10:28;;;;;;;36.90;34.50;;;18.10;99.90;;;;;;4936880;28;20126;-75
2023/05/01 10:12:54;;;;;;;41.88;39.38;;;18.20;99.90;;;;;;4937815;28;20134;-78
2023/05/01 10:15:21;;;;;;;42.42;39.97;;;18.30;99.90;;;;;;4955279;28;20053;-75
2023/05/01 10:17:52;;;;;;;40.70;38.30;;;18.70;99.90;;;;;;4937457;28;20046;-80
2023/05/01 10:20:20;;;;;;;43.13;40.70;;;19.30;99.90;;;;;;4936825;28;20047;-75
2023/05/01 10:22:47;;;;;;;44.38;41.72;;;19.90;99.90;;;;;;4938372;28;20078;-78
2023/05/01 10:25:16;;;;;;;40.00;37.53;;;20.30;99.90;;;;;;4939312;28;20070;-77
2023/05/01 10:27:43;;;;;;;44.95;42.30;;;20.50;99.90;;;;;;4937066;29;20043;-77
2023/05/01 10:30:10;;;;;;;43.00;40.58;;;20.70;99.90;;;;;;4939135;29;20674;-76
2023/05/01 10:32:39;;;;;;;41.08;38.72;;;20.60;99.90;;;;;;4940660;28;20043;-74
2023/05/01 10:35:14;;;;;;;40.65;38.45;;;20.60;99.90;;;;;;4957080;28;20043;-74
2023/05/01 10:38:03;;;;;;;44.10;41.60;;;20.70;99.90;;;;;;4935354;29;20642;-78
2023/05/01 10:40:39;;;;;;;44.80;42.25;;;20.70;99.90;;;;;;4932417;28;20047;-76
2023/05/01 10:43:13;;;;;;;46.22;43.72;;;20.90;99.90;;;;;;4936809;28;20043;-75
2023/05/01 10:45:42;;;;;;;46.47;43.88;;;21.10;99.90;;;;;;4938346;28;20122;-75
2023/05/01 10:48:08;;;;;;;44.53;42.13;;;21.20;99.90;;;;;;4936162;28;20039;-75
2023/05/01 10:51:10;;;;;;;45.17;42.70;;;21.40;99.90;;;;;;4935336;28;20040;-76
2023/05/01 10:53:38;;;;;;;43.17;40.80;;;21.20;99.90;;;;;;4938429;29;20692;-75
2023/05/01 10:56:05;;;;;;;45.70;43.20;;;21.20;99.90;;;;;;4936087;28;20043;-75
2023/05/01 10:58:37;;;;;;;45.97;43.47;;;21.20;99.90;;;;;;4937752;28;20059;-75
2023/05/01 11:01:30;;;;;;;45.22;42.83;;;21.50;99.90;;;;;;4935488;28;20043;-75
2023/05/01 11:03:59;;;;;;;49.22;46.42;;;21.70;99.90;;;;;;4935268;29;20055;-75
2023/05/01 11:06:26;;;;;;;46.60;43.95;;;21.70;99.90;;;;;;4938489;28;20126;-75
2023/05/01 11:08:53;;;;;;;42.30;39.92;;;21.90;99.90;;;;;;4937568;28;20035;-75
2023/05/01 11:11:20;;;;;;;42.08;39.92;;;21.90;99.90;;;;;;4935520;28;20134;-75
2023/05/01 11:14:03;;;;;;;38.40;36.20;;;21.60;99.90;;;;;;4937188;29;20090;-76
2023/05/01 11:16:36;;;;;;;40.10;37.90;;;21.00;99.90;;;;;;4937484;28;20050;-76
2023/05/01 11:19:03;;;;;;;41.40;39.20;;;20.70;99.90;;;;;;4935933;28;20130;-75
2023/05/01 11:21:33;;;;;;;40.50;38.38;;;20.40;99.90;;;;;;4935486;28;20412;-75
2023/05/01 11:24:00;;;;;;;39.85;37.65;;;20.30;99.90;;;;;;4933525;28;20055;-75
2023/05/01 11:26:28;;;;;;;39.95;37.83;;;20.40;99.90;;;;;;4937761;28;20159;-76
2023/05/01 11:28:59;;;;;;;41.33;39.17;;;20.30;99.90;;;;;;4949098;28;20035;-75
2023/05/01 11:31:27;;;;;;;40.75;38.65;;;20.40;99.90;;;;;;4937691;28;20046;-76
2023/05/01 11:33:58;;;;;;;43.83;41.38;;;20.40;99.90;;;;;;4952900;28;20098;-75
2023/05/01 11:36:26;;;;;;;45.70;43.13;;;20.40;99.90;;;;;;4937714;28;20055;-76
2023/05/01 11:38:58;;;;;;;46.42;43.70;;;20.50;99.90;;;;;;4936354;28;20035;-76
2023/05/01 11:41:26;;;;;;;51.45;48.75;;;20.50;99.90;;;;;;4935640;28;20047;-76
2023/05/01 11:43:55;;;;;;;48.42;45.92;;;20.80;99.90;;;;;;4936003;29;20043;-76
2023/05/01 11:46:29;;;;;;;49.28;46.67;;;21.20;99.90;;;;;;4935138;28;20147;-75
2023/05/01 11:48:58;;;;;;;49.67;47.15;;;21.20;99.90;;;;;;4936923;28;20634;-76
2023/05/01 11:51:25;;;;;;;44.85;42.47;;;21.30;99.90;;;;;;4938028;28;20043;-76
2023/05/01 11:54:01;;;;;;;48.00;45.60;;;21.30;99.90;;;;;;4937866;28;20047;-75
2023/05/01 11:56:29;;;;;;;49.00;46.50;;;21.30;99.90;;;;;;4955958;28;20105;-75
2023/05/01 11:58:57;;;;;;;49.05;46.35;;;21.40;99.90;;;;;;4939443;28;20039;-75
2023/05/01 12:01:38;;;;;;;51.05;48.45;;;21.40;99.90;;;;;;4941083;28;20566;-75
2023/05/01 12:04:07;;;;;;;42.28;40.03;;;21.30;99.90;;;;;;4939591;28;20777;-76
2023/05/01 12:06:43;;;;;;;50.90;48.40;;;21.50;99.90;;;;;;4938531;29;20043;-75
2023/05/01 12:09:16;;;;;;;48.60;46.10;;;21.30;99.90;;;;;;4939337;28;21415;-75
2023/05/01 12:11:43;;;;;;;48.35;45.95;;;21.20;99.90;;;;;;4939985;28;20094;-75
2023/05/01 12:14:11;;;;;;;44.58;42.28;;;21.20;99.90;;;;;;4937106;28;20047;-76
2023/05/01 12:16:39;;;;;;;44.60;42.40;;;21.20;99.90;;;;;;4941555;28;20055;-78
2023/05/01 12:19:06;;;;;;;46.65;44.38;;;21.20;99.90;;;;;;4956378;28;20114;-76
2023/05/01 12:21:34;;;;;;;49.72;47.28;;;21.10;99.90;;;;;;4939669;28;20039;-78
2023/05/01 12:24:07;;;;;;;45.83;43.50;;;21.00;99.90;;;;;;4937818;29;20047;-75
2023/05/01 12:26:34;;;;;;;49.55;46.95;;;20.80;99.90;;;;;;4941479;28;20043;-77
2023/05/01 12:29:04;;;;;;;47.65;45.17;;;20.50;99.90;;;;;;4939656;28;20047;-76
2023/05/01 12:31:32;;;;;;;49.10;46.38;;;20.70;99.90;;;;;;4941016;28;20039;-76
2023/05/01 12:34:04;;;;;;;48.25;45.75;;;20.80;99.90;;;;;;4937606;28;20039;-81
2023/05/01 12:36:32;;;;;;;44.97;42.78;;;20.60;99.90;;;;;;4937864;28;20054;-76
2023/05/01 12:39:03;;;;;;;46.15;43.65;;;20.60;99.90;;;;;;4936568;29;20138;-77
2023/05/01 12:41:35;;;;;;;51.33;48.72;;;20.00;99.90;;;;;;4954327;28;20046;-76
2023/05/01 12:44:26;;;;;;;43.83;41.38;;;20.10;99.90;;;;;;4939382;29;20075;-76